Time;durP1;ratioP1;P1;durP2;ratioP2;P2;SDS_P1;SDS_P2;PMS_P1;PMS_P2;Temp;Humidity;BMP_temperature;BMP_pressure;BME280_temperature;BME280_humidity;BME280_pressure;Samples;Min_cycle;Max_cycle;Signal;HPM_P1;HPM_P2
2023/05/27 00:01:03;;;;;;;3.20;2.13;;;20.70;58.70;;;;;;4979471;28;20846;-72
2023/05/27 00:03:31;;;;;;;4.40;2.90;;;20.70;58.60;;;;;;4978959;28;20471;-71
2023/05/27 00:06:02;;;;;;;2.57;2.10;;;20.70;58.60;;;;;;4979671;28;20957;-72
2023/05/27 00:08:30;;;;;;;4.33;2.20;;;20.70;58.70;;;;;;4947607;28;20468;-72
2023/05/27 00:11:00;;;;;;;3.60;2.33;;;20.60;58.60;;;;;;4971624;28;20734;-72
2023/05/27 00:13:28;;;;;;;2.53;2.30;;;20.60;58.60;;;;;;4971306;28;20522;-72
2023/05/27 00:15:57;;;;;;;3.10;2.50;;;20.60;58.70;;;;;;4971620;28;20502;-72
2023/05/27 00:18:25;;;;;;;3.70;2.67;;;20.60;58.90;;;;;;4947979;28;20436;-72
2023/05/27 00:20:54;;;;;;;5.23;2.60;;;20.60;59.10;;;;;;4948115;28;20993;-73
2023/05/27 00:23:22;;;;;;;4.20;2.93;;;20.60;59.10;;;;;;4947088;28;20538;-72
2023/05/27 00:25:51;;;;;;;3.53;2.50;;;20.60;59.00;;;;;;4975217;28;20942;-71
2023/05/27 00:28:21;;;;;;;3.50;2.37;;;20.60;59.00;;;;;;4944652;29;20480;-72
2023/05/27 00:30:49;;;;;;;5.23;2.70;;;20.60;59.10;;;;;;4985674;28;20467;-72
2023/05/27 00:33:18;;;;;;;3.47;2.33;;;20.60;59.00;;;;;;4951794;28;20471;-72
2023/05/27 00:35:47;;;;;;;3.30;2.10;;;20.60;59.30;;;;;;4977782;28;20472;-71
2023/05/27 00:38:16;;;;;;;3.20;2.90;;;20.60;59.40;;;;;;4944289;28;20827;-72
2023/05/27 00:40:45;;;;;;;3.33;2.60;;;20.60;59.30;;;;;;4946467;28;20456;-72
2023/05/27 00:43:13;;;;;;;4.80;2.43;;;20.60;59.40;;;;;;4970783;28;20455;-72
2023/05/27 00:45:43;;;;;;;3.13;2.10;;;20.60;59.50;;;;;;4986531;28;20482;-70
2023/05/27 00:48:12;;;;;;;3.50;2.30;;;20.60;59.40;;;;;;4971623;28;20448;-71
2023/05/27 00:50:40;;;;;;;2.87;2.10;;;20.60;59.50;;;;;;4942631;28;20457;-71
2023/05/27 00:53:09;;;;;;;3.80;2.63;;;20.60;59.50;;;;;;4971935;28;20531;-72
2023/05/27 00:55:37;;;;;;;3.00;2.60;;;20.60;59.50;;;;;;4973740;28;20854;-73
2023/05/27 00:58:09;;;;;;;3.37;1.90;;;20.60;59.50;;;;;;4980306;28;20425;-72
2023/05/27 01:00:38;;;;;;;3.10;2.70;;;20.60;59.60;;;;;;4953634;28;20460;-73
2023/05/27 01:03:09;;;;;;;3.47;1.97;;;20.60;59.50;;;;;;4980686;28;20425;-72
2023/05/27 01:05:38;;;;;;;2.97;2.30;;;20.60;59.50;;;;;;4962071;28;20483;-72
2023/05/27 01:08:19;;;;;;;1.90;1.70;;;20.60;59.70;;;;;;4979316;28;20454;-72
2023/05/27 01:10:51;;;;;;;3.10;2.27;;;20.60;59.70;;;;;;4944056;28;20487;-73
2023/05/27 01:13:31;;;;;;;2.60;1.90;;;20.60;59.70;;;;;;4970747;28;20859;-72
2023/05/27 01:16:02;;;;;;;5.00;2.10;;;20.60;59.70;;;;;;4961777;28;20551;-73
2023/05/27 01:18:33;;;;;;;2.20;1.67;;;20.60;59.80;;;;;;4942174;29;20975;-71
2023/05/27 01:21:06;;;;;;;3.13;2.17;;;20.60;59.90;;;;;;4935433;28;20472;-71
2023/05/27 01:23:38;;;;;;;3.50;2.40;;;20.50;59.80;;;;;;4983515;28;20459;-72
2023/05/27 01:26:06;;;;;;;3.30;2.27;;;20.50;59.90;;;;;;4965628;28;20463;-72
2023/05/27 01:28:36;;;;;;;3.40;2.20;;;20.50;59.90;;;;;;4953552;28;20435;-71
2023/05/27 01:31:12;;;;;;;2.93;1.80;;;20.50;59.80;;;;;;4957183;28;20538;-72
2023/05/27 01:33:49;;;;;;;3.70;2.23;;;20.60;59.70;;;;;;4957898;28;20490;-72
2023/05/27 01:36:23;;;;;;;3.90;2.70;;;20.50;59.50;;;;;;4956592;28;20566;-72
2023/05/27 01:38:56;;;;;;;5.67;2.90;;;20.50;59.40;;;;;;4948311;28;20899;-71
2023/05/27 01:41:26;;;;;;;3.13;2.70;;;20.50;59.50;;;;;;4963297;28;20470;-72
2023/05/27 01:43:55;;;;;;;2.93;2.40;;;20.50;59.60;;;;;;4947573;28;20444;-72
2023/05/27 01:46:23;;;;;;;2.80;2.17;;;20.50;59.60;;;;;;4962524;28;20557;-71
2023/05/27 01:48:52;;;;;;;3.30;2.43;;;20.50;59.50;;;;;;4964925;28;20534;-72
2023/05/27 01:51:21;;;;;;;3.00;2.33;;;20.50;59.60;;;;;;4960705;28;20484;-72
2023/05/27 01:53:49;;;;;;;2.93;2.37;;;20.50;59.70;;;;;;4951954;28;20542;-71
2023/05/27 01:56:19;;;;;;;3.60;2.20;;;20.50;59.90;;;;;;4972706;28;20482;-72
2023/05/27 01:58:49;;;;;;;3.97;1.97;;;20.50;59.90;;;;;;4962815;28;20527;-72
2023/05/27 02:01:18;;;;;;;3.40;2.60;;;20.50;59.90;;;;;;4966031;28;20490;-72
2023/05/27 02:03:46;;;;;;;2.90;2.50;;;20.50;60.00;;;;;;4972491;28;20538;-72
2023/05/27 02:06:15;;;;;;;4.30;2.03;;;20.50;60.00;;;;;;4971216;28;20508;-72
2023/05/27 02:08:43;;;;;;;3.27;2.10;;;20.50;59.90;;;;;;4947481;29;20467;-71
2023/05/27 02:11:12;;;;;;;3.10;2.40;;;20.40;59.70;;;;;;4948918;28;20493;-72
2023/05/27 02:13:42;;;;;;;4.20;2.57;;;20.40;59.80;;;;;;4964473;28;20452;-72
2023/05/27 02:16:12;;;;;;;4.13;2.40;;;20.40;59.60;;;;;;4969655;28;20474;-72
2023/05/27 02:18:43;;;;;;;2.77;2.47;;;20.40;59.70;;;;;;4970136;28;20475;-70
2023/05/27 02:21:12;;;;;;;4.27;2.47;;;20.40;59.60;;;;;;4973425;28;20554;-72
2023/05/27 02:23:44;;;;;;;3.50;2.40;;;20.40;59.60;;;;;;4981466;28;20447;-71
2023/05/27 02:26:12;;;;;;;4.23;2.27;;;20.40;59.50;;;;;;4965513;28;20476;-71
2023/05/27 02:28:42;;;;;;;3.50;2.30;;;20.50;59.60;;;;;;4964306;28;20444;-72
2023/05/27 02:31:10;;;;;;;3.30;2.27;;;20.40;59.60;;;;;;4956362;28;20475;-72
2023/05/27 02:33:39;;;;;;;4.17;3.00;;;20.40;59.60;;;;;;4963986;28;20447;-72
2023/05/27 02:36:08;;;;;;;2.73;2.20;;;20.40;59.70;;;;;;4948682;28;20534;-71
2023/05/27 02:38:36;;;;;;;4.50;2.70;;;20.40;59.10;;;;;;4949217;28;20988;-72
2023/05/27 02:41:05;;;;;;;3.33;2.30;;;20.40;59.20;;;;;;4964124;28;20483;-72
2023/05/27 02:43:35;;;;;;;4.43;2.77;;;20.40;59.30;;;;;;4950570;28;20464;-72
2023/05/27 02:46:07;;;;;;;4.90;3.00;;;20.40;59.50;;;;;;4948936;28;20476;-71
2023/05/27 02:48:36;;;;;;;3.10;2.20;;;20.40;59.50;;;;;;4963471;28;20440;-72
2023/05/27 02:51:04;;;;;;;4.50;2.60;;;20.40;59.50;;;;;;4975690;28;20828;-72
2023/05/27 02:53:33;;;;;;;5.07;3.13;;;20.40;59.10;;;;;;4983780;28;20450;-72
2023/05/27 02:56:02;;;;;;;4.13;2.37;;;20.30;59.20;;;;;;4971291;28;20530;-72
2023/05/27 02:58:30;;;;;;;3.40;2.47;;;20.30;59.20;;;;;;4965588;28;20813;-71
2023/05/27 03:00:59;;;;;;;4.83;2.50;;;20.40;59.50;;;;;;4949119;28;20479;-71
2023/05/27 03:03:29;;;;;;;4.60;2.50;;;20.30;59.10;;;;;;4963247;28;20444;-72
2023/05/27 03:05:57;;;;;;;4.80;2.43;;;20.30;59.20;;;;;;4947203;29;20591;-71
2023/05/27 03:08:25;;;;;;;3.17;2.03;;;20.30;59.20;;;;;;4965855;28;20467;-72
2023/05/27 03:10:54;;;;;;;4.20;2.47;;;20.30;59.20;;;;;;4964032;28;20471;-72
2023/05/27 03:13:22;;;;;;;2.83;2.30;;;20.30;59.40;;;;;;4966413;28;20520;-71
2023/05/27 03:15:51;;;;;;;3.33;2.30;;;20.30;59.40;;;;;;4950491;28;20474;-72
2023/05/27 03:18:19;;;;;;;5.33;3.00;;;20.30;59.30;;;;;;4966011;28;20557;-72
2023/05/27 03:20:50;;;;;;;3.83;2.47;;;20.30;59.30;;;;;;4964154;28;20498;-73
2023/05/27 03:23:19;;;;;;;6.50;2.70;;;20.30;59.30;;;;;;4965785;28;20456;-72
2023/05/27 03:25:48;;;;;;;3.47;2.90;;;20.30;59.50;;;;;;4965204;28;20527;-72
2023/05/27 03:28:17;;;;;;;3.90;2.30;;;20.30;59.40;;;;;;4966591;28;20495;-71
2023/05/27 03:30:46;;;;;;;4.30;2.30;;;20.30;59.40;;;;;;4965823;28;20448;-72
2023/05/27 03:33:26;;;;;;;3.40;2.00;;;20.20;59.10;;;;;;4962136;28;20448;-71
2023/05/27 03:35:56;;;;;;;2.80;2.40;;;20.30;59.40;;;;;;4964916;28;20506;-72
2023/05/27 03:38:25;;;;;;;4.80;2.90;;;20.20;59.20;;;;;;4950225;29;20452;-72
2023/05/27 03:40:53;;;;;;;4.20;2.60;;;20.20;59.40;;;;;;4960758;28;20492;-72
2023/05/27 03:43:22;;;;;;;5.50;2.70;;;20.20;59.10;;;;;;4966651;28;20439;-72
2023/05/27 03:45:51;;;;;;;3.87;2.63;;;20.20;59.10;;;;;;4963810;28;20578;-72
2023/05/27 03:48:20;;;;;;;3.90;2.60;;;20.20;59.10;;;;;;4941735;29;20789;-72
2023/05/27 03:50:48;;;;;;;2.77;2.20;;;20.20;59.20;;;;;;4965392;28;20811;-72
2023/05/27 03:53:18;;;;;;;4.20;2.40;;;20.20;59.20;;;;;;4964977;28;20458;-72
2023/05/27 03:55:47;;;;;;;2.23;1.87;;;20.20;59.30;;;;;;4948431;29;20480;-72
2023/05/27 03:58:16;;;;;;;3.37;2.33;;;20.20;59.40;;;;;;4965570;28;20436;-72
2023/05/27 04:00:44;;;;;;;4.20;2.67;;;20.20;59.30;;;;;;4964315;28;20484;-70
2023/05/27 04:03:13;;;;;;;4.50;2.70;;;20.20;59.40;;;;;;4957551;28;20531;-72
2023/05/27 04:05:42;;;;;;;5.03;2.30;;;20.20;59.30;;;;;;4950647;29;20499;-72
2023/05/27 04:08:13;;;;;;;5.23;2.77;;;20.20;59.40;;;;;;4956679;28;20586;-72
2023/05/27 04:10:43;;;;;;;5.53;2.70;;;20.20;59.40;;;;;;4965333;28;20451;-71
2023/05/27 04:13:11;;;;;;;4.00;2.20;;;20.20;59.40;;;;;;4965587;28;20507;-72
2023/05/27 04:15:42;;;;;;;4.30;3.00;;;20.20;59.40;;;;;;4962559;28;20472;-71
2023/05/27 04:18:10;;;;;;;3.13;2.63;;;20.20;59.40;;;;;;4957340;28;20440;-72
2023/05/27 04:20:42;;;;;;;2.60;2.40;;;20.10;59.40;;;;;;4964975;28;20444;-72
2023/05/27 04:23:11;;;;;;;3.27;2.07;;;20.10;60.70;;;;;;4958426;28;20444;-72
2023/05/27 04:25:40;;;;;;;3.57;2.50;;;20.10;59.40;;;;;;4961974;28;20852;-73
2023/05/27 04:28:12;;;;;;;4.00;2.83;;;20.10;59.40;;;;;;4956534;28;20944;-71
2023/05/27 04:30:45;;;;;;;3.70;2.53;;;20.10;59.40;;;;;;4948224;28;20499;-72
2023/05/27 04:33:26;;;;;;;3.10;2.30;;;20.10;59.40;;;;;;4947513;28;20455;-72
2023/05/27 04:35:56;;;;;;;2.97;2.07;;;20.10;59.40;;;;;;4948923;29;20496;-72
2023/05/27 04:38:31;;;;;;;4.40;2.70;;;20.10;59.40;;;;;;4963341;28;20476;-72
2023/05/27 04:41:04;;;;;;;4.33;2.70;;;20.10;59.50;;;;;;4964113;28;20464;-72
2023/05/27 04:44:06;;;;;;;4.20;2.40;;;20.10;59.60;;;;;;4927820;28;21096;-72
2023/05/27 04:46:40;;;;;;;2.53;2.27;;;20.00;59.70;;;;;;4963411;28;20468;-72
2023/05/27 04:49:11;;;;;;;3.80;2.20;;;20.10;59.70;;;;;;4946725;29;20570;-72
2023/05/27 04:51:39;;;;;;;5.77;2.70;;;20.00;59.50;;;;;;4981434;28;20494;-72
2023/05/27 04:54:08;;;;;;;3.70;2.20;;;20.10;59.80;;;;;;4972089;28;20514;-72
2023/05/27 04:56:37;;;;;;;5.60;2.97;;;20.10;59.70;;;;;;4949440;28;20481;-70
2023/05/27 04:59:07;;;;;;;2.67;2.00;;;20.00;59.70;;;;;;4986907;28;20543;-72
2023/05/27 05:01:58;;;;;;;2.97;2.40;;;20.00;59.70;;;;;;4955661;28;20494;-71
2023/05/27 05:04:34;;;;;;;2.90;2.43;;;20.00;59.50;;;;;;4947048;28;20472;-72
2023/05/27 05:07:04;;;;;;;3.70;2.27;;;20.10;59.70;;;;;;4983074;28;20478;-72
2023/05/27 05:09:35;;;;;;;4.57;3.00;;;20.10;59.80;;;;;;4946032;29;20476;-71
2023/05/27 05:12:11;;;;;;;4.83;2.60;;;20.10;60.00;;;;;;4966439;28;20473;-71
2023/05/27 05:14:44;;;;;;;3.70;2.87;;;20.10;59.70;;;;;;4983031;28;20498;-72
2023/05/27 05:17:13;;;;;;;4.17;2.23;;;20.00;59.60;;;;;;4982900;28;20446;-71
2023/05/27 05:19:43;;;;;;;5.10;2.93;;;20.10;59.70;;;;;;4983067;28;20811;-72
2023/05/27 05:22:13;;;;;;;3.67;2.30;;;20.10;59.60;;;;;;4974764;28;20486;-72
2023/05/27 05:24:45;;;;;;;3.60;2.03;;;20.10;59.40;;;;;;4980571;28;20517;-72
2023/05/27 05:27:14;;;;;;;3.87;2.60;;;20.10;59.30;;;;;;4983006;28;20918;-72
2023/05/27 05:29:45;;;;;;;3.97;2.73;;;20.10;58.90;;;;;;4980443;28;20472;-73
2023/05/27 05:32:13;;;;;;;2.57;2.17;;;20.10;59.10;;;;;;4981518;28;20816;-72
2023/05/27 05:34:43;;;;;;;3.30;2.50;;;20.10;59.00;;;;;;4982229;28;20506;-72
2023/05/27 05:37:12;;;;;;;2.83;2.20;;;20.20;59.30;;;;;;4973973;28;20474;-71
2023/05/27 05:39:42;;;;;;;4.43;2.60;;;20.20;59.00;;;;;;4980797;28;20868;-72
2023/05/27 05:42:11;;;;;;;2.33;2.07;;;20.20;59.10;;;;;;4983170;28;20431;-72
2023/05/27 05:44:39;;;;;;;3.90;2.40;;;20.20;59.10;;;;;;4981907;28;20829;-72
2023/05/27 05:47:09;;;;;;;2.90;2.60;;;20.20;59.10;;;;;;4965185;28;20567;-72
2023/05/27 05:49:38;;;;;;;3.60;2.43;;;20.20;59.10;;;;;;4966832;28;20479;-72
2023/05/27 05:52:10;;;;;;;3.33;2.70;;;20.20;58.80;;;;;;4966657;28;20894;-72
2023/05/27 05:54:38;;;;;;;5.03;3.60;;;20.20;58.70;;;;;;4980539;28;20487;-72
2023/05/27 05:57:07;;;;;;;3.47;2.17;;;20.20;58.60;;;;;;4981616;28;20487;-72
2023/05/27 05:59:35;;;;;;;3.70;2.70;;;20.20;58.70;;;;;;4982641;28;20797;-71
2023/05/27 06:02:04;;;;;;;2.30;1.80;;;20.20;59.00;;;;;;4963722;28;21052;-72
2023/05/27 06:04:34;;;;;;;3.40;2.30;;;20.20;59.10;;;;;;4981505;28;20822;-72
2023/05/27 06:07:02;;;;;;;4.77;2.90;;;20.20;59.10;;;;;;4964908;28;21786;-72
2023/05/27 06:09:31;;;;;;;5.00;2.20;;;20.20;58.90;;;;;;4965726;28;20474;-72
2023/05/27 06:12:03;;;;;;;5.20;2.70;;;20.10;58.60;;;;;;4981522;28;20471;-70
2023/05/27 06:14:39;;;;;;;3.03;2.00;;;20.10;59.00;;;;;;4979359;28;20463;-72
2023/05/27 06:17:07;;;;;;;3.60;2.10;;;20.20;59.10;;;;;;4958327;28;20478;-72
2023/05/27 06:19:37;;;;;;;3.33;2.43;;;20.10;59.00;;;;;;4982071;28;21231;-72
2023/05/27 06:22:06;;;;;;;3.73;2.00;;;20.20;59.00;;;;;;4980895;28;20486;-72
2023/05/27 06:24:40;;;;;;;3.80;2.27;;;20.20;59.30;;;;;;4966282;28;20502;-71
2023/05/27 06:27:20;;;;;;;2.80;2.37;;;20.20;59.60;;;;;;4975205;28;20465;-72
2023/05/27 06:29:49;;;;;;;5.57;2.83;;;20.20;58.60;;;;;;4982681;28;20467;-71
2023/05/27 06:32:27;;;;;;;3.73;2.80;;;20.20;58.60;;;;;;4975600;28;20542;-72
2023/05/27 06:34:57;;;;;;;4.43;2.93;;;20.20;58.50;;;;;;4966389;28;21394;-70
2023/05/27 06:37:25;;;;;;;5.10;2.90;;;20.20;58.70;;;;;;4954782;28;21196;-72
2023/05/27 06:39:54;;;;;;;3.80;2.40;;;20.20;58.20;;;;;;4982583;28;20443;-71
2023/05/27 06:42:23;;;;;;;2.90;2.57;;;20.20;58.20;;;;;;4970050;28;20451;-73
2023/05/27 06:44:58;;;;;;;5.23;3.00;;;20.20;58.00;;;;;;4985924;28;20479;-72
2023/05/27 06:47:29;;;;;;;6.20;3.23;;;20.20;58.20;;;;;;4983404;28;21965;-72
2023/05/27 06:49:59;;;;;;;2.40;2.20;;;20.20;57.80;;;;;;4985432;28;20486;-73
2023/05/27 06:52:27;;;;;;;3.73;2.50;;;20.20;58.30;;;;;;4984970;28;20446;-72
2023/05/27 06:55:14;;;;;;;7.07;3.60;;;20.20;58.30;;;;;;4978639;28;20609;-71
2023/05/27 06:58:03;;;;;;;4.90;2.40;;;20.20;57.70;;;;;;4970006;28;20455;-72
2023/05/27 07:00:55;;;;;;;6.80;3.00;;;20.20;58.30;;;;;;4972522;28;20483;-72
2023/05/27 07:03:30;;;;;;;4.03;2.97;;;20.30;57.80;;;;;;4966525;28;20436;-73
2023/05/27 07:06:00;;;;;;;4.87;2.70;;;20.30;57.00;;;;;;4948566;28;20489;-72
2023/05/27 07:08:34;;;;;;;14.53;7.97;;;20.30;57.30;;;;;;4951360;28;20463;-72
2023/05/27 07:11:10;;;;;;;17.70;6.90;;;20.00;51.30;;;;;;4957251;28;20471;-72
2023/05/27 07:13:38;;;;;;;11.03;5.20;;;19.70;51.90;;;;;;4950244;29;20470;-72
2023/05/27 07:16:08;;;;;;;7.33;4.93;;;19.70;53.70;;;;;;4962027;28;20522;-71
2023/05/27 07:18:36;;;;;;;8.17;4.10;;;19.70;53.80;;;;;;4947596;29;20440;-71
2023/05/27 07:21:08;;;;;;;8.50;4.87;;;19.80;54.20;;;;;;4946339;28;20484;-72
2023/05/27 07:23:37;;;;;;;10.63;4.63;;;19.90;54.00;;;;;;4942985;28;20443;-72
2023/05/27 07:26:19;;;;;;;11.00;4.93;;;19.90;53.60;;;;;;4949003;28;20502;-72
2023/05/27 07:28:48;;;;;;;11.40;6.17;;;20.00;54.00;;;;;;4951941;28;20452;-73
2023/05/27 07:31:23;;;;;;;8.00;4.90;;;20.10;53.70;;;;;;4941491;28;21014;-72
2023/05/27 07:33:57;;;;;;;9.17;4.40;;;20.10;53.90;;;;;;4952355;28;20544;-70
2023/05/27 07:36:30;;;;;;;9.67;4.40;;;20.10;53.70;;;;;;4944220;28;20484;-72
2023/05/27 07:38:58;;;;;;;7.37;4.40;;;20.10;54.00;;;;;;4962854;28;20446;-71
2023/05/27 07:41:29;;;;;;;6.87;4.20;;;20.10;54.20;;;;;;4943250;28;20479;-73
2023/05/27 07:44:01;;;;;;;7.93;4.47;;;20.20;54.50;;;;;;4962767;28;20468;-73
2023/05/27 07:46:30;;;;;;;9.07;4.40;;;20.10;54.80;;;;;;4948781;28;20976;-71
2023/05/27 07:48:58;;;;;;;11.43;5.43;;;20.30;54.50;;;;;;4948225;28;20550;-72
2023/05/27 07:51:30;;;;;;;7.97;4.47;;;20.30;53.10;;;;;;4963288;28;20468;-70
2023/05/27 07:53:59;;;;;;;12.33;5.37;;;20.30;54.00;;;;;;4946249;28;20443;-71
2023/05/27 07:56:28;;;;;;;16.73;6.27;;;20.40;53.90;;;;;;4956518;28;20479;-72
2023/05/27 07:59:01;;;;;;;8.93;5.60;;;20.30;52.90;;;;;;4949004;29;20428;-70
2023/05/27 08:01:32;;;;;;;10.10;5.13;;;20.30;53.40;;;;;;4944413;28;20891;-71
2023/05/27 08:04:01;;;;;;;14.47;4.67;;;20.20;53.80;;;;;;4960579;28;20606;-71
2023/05/27 08:07:04;;;;;;;12.63;5.60;;;20.20;54.00;;;;;;4948507;28;20471;-71
2023/05/27 08:09:52;;;;;;;7.37;4.30;;;20.30;54.30;;;;;;4947959;29;20472;-72
2023/05/27 08:12:39;;;;;;;11.90;6.10;;;20.40;53.90;;;;;;4945739;29;20830;-72
2023/05/27 08:15:14;;;;;;;9.33;4.60;;;20.40;52.30;;;;;;4961934;28;20865;-71
2023/05/27 08:18:02;;;;;;;9.07;5.00;;;20.40;53.70;;;;;;4945968;28;20459;-70
2023/05/27 08:20:43;;;;;;;11.20;5.20;;;20.50;52.90;;;;;;4963867;28;20468;-71
2023/05/27 08:23:52;;;;;;;9.17;4.70;;;20.50;51.90;;;;;;4938732;29;20972;-71
2023/05/27 08:26:43;;;;;;;8.20;4.40;;;20.40;52.40;;;;;;4961716;28;20553;-72
2023/05/27 08:29:25;;;;;;;11.43;5.00;;;20.40;53.10;;;;;;4973407;28;20447;-71
2023/05/27 08:32:20;;;;;;;6.83;4.23;;;20.40;53.60;;;;;;4961755;28;21629;-73
2023/05/27 08:34:50;;;;;;;9.83;4.83;;;20.30;54.40;;;;;;4965933;28;20470;-72
2023/05/27 08:37:19;;;;;;;8.47;4.60;;;20.30;54.50;;;;;;4974068;28;20821;-72
2023/05/27 08:39:51;;;;;;;10.80;4.40;;;20.20;54.80;;;;;;4981442;28;20435;-71
2023/05/27 08:42:28;;;;;;;7.00;4.03;;;20.20;54.90;;;;;;4963638;28;20456;-71
2023/05/27 08:44:57;;;;;;;7.77;4.53;;;20.20;55.30;;;;;;4947481;28;20817;-72
2023/05/27 08:47:26;;;;;;;7.97;3.43;;;20.20;55.40;;;;;;4958912;28;20453;-71
2023/05/27 08:49:54;;;;;;;5.90;3.90;;;20.20;55.70;;;;;;4963854;28;20578;-71
2023/05/27 08:52:25;;;;;;;6.00;3.57;;;20.20;55.90;;;;;;4944774;28;20437;-70
2023/05/27 08:54:55;;;;;;;8.83;4.03;;;20.20;55.90;;;;;;4960310;28;20539;-73
2023/05/27 08:57:29;;;;;;;7.60;4.10;;;20.20;55.80;;;;;;4956282;28;20796;-72
2023/05/27 08:59:58;;;;;;;6.50;3.97;;;20.10;56.00;;;;;;4963920;28;20533;-73
2023/05/27 09:02:29;;;;;;;5.93;3.73;;;20.20;56.10;;;;;;4943824;28;20444;-70
2023/05/27 09:04:58;;;;;;;10.50;4.30;;;20.20;56.20;;;;;;4942449;28;20467;-72
2023/05/27 09:07:27;;;;;;;7.00;3.60;;;20.10;56.20;;;;;;4956032;28;20443;-72
2023/05/27 09:09:58;;;;;;;10.83;3.60;;;20.10;56.20;;;;;;4946783;28;20491;-71
2023/05/27 09:12:27;;;;;;;7.40;4.33;;;20.20;56.40;;;;;;4946467;29;20495;-71
2023/05/27 09:14:56;;;;;;;7.80;3.73;;;20.20;56.50;;;;;;4953255;28;20464;-72
2023/05/27 09:17:25;;;;;;;5.83;3.57;;;20.10;56.70;;;;;;4947109;28;20455;-72
2023/05/27 09:19:55;;;;;;;5.23;3.67;;;20.10;56.60;;;;;;4962628;28;20455;-71
2023/05/27 09:22:24;;;;;;;6.23;3.93;;;20.20;56.80;;;;;;4964214;28;20622;-70
2023/05/27 09:24:55;;;;;;;5.50;3.30;;;20.20;56.70;;;;;;4953355;28;20967;-71
2023/05/27 09:27:28;;;;;;;8.93;4.37;;;20.20;56.90;;;;;;4954918;28;20504;-72
2023/05/27 09:29:57;;;;;;;6.07;3.53;;;20.20;57.00;;;;;;4946522;28;20459;-72
2023/05/27 09:32:28;;;;;;;5.07;3.30;;;20.20;57.00;;;;;;4963751;28;20840;-72
2023/05/27 09:34:56;;;;;;;6.30;3.37;;;20.20;56.70;;;;;;4951641;28;20563;-73
2023/05/27 09:37:31;;;;;;;6.97;3.40;;;20.10;57.00;;;;;;4967372;28;20469;-71
2023/05/27 09:40:00;;;;;;;6.27;3.67;;;20.10;57.10;;;;;;4965357;28;20818;-72
2023/05/27 09:42:40;;;;;;;7.90;3.90;;;20.10;57.00;;;;;;4982085;28;20423;-72
2023/05/27 09:45:12;;;;;;;4.87;3.53;;;20.20;57.20;;;;;;4976023;28;20478;-71
2023/05/27 09:47:41;;;;;;;5.47;2.97;;;20.10;57.00;;;;;;4957859;28;20653;-71
2023/05/27 09:50:14;;;;;;;7.40;4.03;;;20.10;56.70;;;;;;4947261;29;20448;-71
2023/05/27 09:52:43;;;;;;;4.83;3.40;;;20.10;57.20;;;;;;4954663;28;20436;-72
2023/05/27 09:55:32;;;;;;;6.03;3.50;;;20.20;57.10;;;;;;4953487;28;20485;-72
2023/05/27 09:58:02;;;;;;;4.33;2.93;;;20.20;57.30;;;;;;4947085;29;20452;-70
2023/05/27 10:00:31;;;;;;;4.47;3.20;;;20.20;57.10;;;;;;4963927;28;20436;-71
2023/05/27 10:03:03;;;;;;;6.53;3.63;;;20.10;57.00;;;;;;4944484;29;20455;-72
2023/05/27 10:05:32;;;;;;;5.23;3.37;;;20.10;57.20;;;;;;4963413;28;20452;-72
2023/05/27 10:08:01;;;;;;;7.13;3.67;;;20.10;57.10;;;;;;4944090;28;20480;-72
2023/05/27 10:10:34;;;;;;;7.33;3.10;;;20.10;57.20;;;;;;4959277;28;20476;-72
2023/05/27 10:13:04;;;;;;;6.00;3.50;;;20.10;56.90;;;;;;4960187;28;20478;-71
2023/05/27 10:15:34;;;;;;;5.67;3.13;;;20.20;56.70;;;;;;4946786;29;20478;-71
2023/05/27 10:18:07;;;;;;;7.00;3.73;;;20.10;56.30;;;;;;4945804;28;20452;-72
2023/05/27 10:20:39;;;;;;;4.37;3.37;;;20.10;56.40;;;;;;4946172;28;20900;-71
2023/05/27 10:23:13;;;;;;;6.67;3.47;;;20.10;57.40;;;;;;4940747;29;20972;-72
2023/05/27 10:25:46;;;;;;;4.67;3.07;;;20.20;56.20;;;;;;4962579;28;20467;-71
2023/05/27 10:28:27;;;;;;;7.07;3.90;;;20.20;56.50;;;;;;4952947;28;20538;-72
2023/05/27 10:31:05;;;;;;;6.97;3.47;;;20.10;56.40;;;;;;4955771;28;20719;-72
2023/05/27 10:33:37;;;;;;;5.90;3.83;;;20.10;56.40;;;;;;4949760;29;20443;-71
2023/05/27 10:36:09;;;;;;;7.43;3.37;;;20.20;56.30;;;;;;4949869;28;21046;-72
2023/05/27 10:38:38;;;;;;;4.83;3.73;;;20.20;56.40;;;;;;4965163;28;20949;-73
2023/05/27 10:41:08;;;;;;;4.90;3.50;;;20.20;56.60;;;;;;4963224;28;20551;-72
2023/05/27 10:43:38;;;;;;;4.30;3.47;;;20.10;56.20;;;;;;4965276;28;20852;-71
2023/05/27 10:46:09;;;;;;;3.87;3.20;;;20.20;56.30;;;;;;4964130;28;20483;-70
2023/05/27 10:48:39;;;;;;;9.53;3.70;;;20.20;56.10;;;;;;4966142;28;20503;-72
2023/05/27 10:51:09;;;;;;;6.73;4.00;;;20.10;56.40;;;;;;4948113;28;20472;-72
2023/05/27 10:53:38;;;;;;;5.30;3.53;;;20.20;56.20;;;;;;4965229;28;20444;-72
2023/05/27 10:56:08;;;;;;;8.23;3.23;;;20.20;56.10;;;;;;4964609;28;20486;-72
2023/05/27 10:58:39;;;;;;;5.97;4.07;;;20.20;56.30;;;;;;4950684;28;20436;-72
2023/05/27 11:01:12;;;;;;;4.90;3.37;;;20.20;56.60;;;;;;4963224;28;21004;-71
2023/05/27 11:03:45;;;;;;;6.60;2.90;;;20.20;56.40;;;;;;4957942;28;20511;-71
2023/05/27 11:06:16;;;;;;;4.30;3.40;;;20.20;56.70;;;;;;4977129;28;20533;-72
2023/05/27 11:08:45;;;;;;;4.87;3.40;;;20.20;56.30;;;;;;4979346;28;20496;-72
2023/05/27 11:11:13;;;;;;;5.13;3.10;;;20.20;56.20;;;;;;4962045;28;20522;-72
2023/05/27 11:13:45;;;;;;;6.10;3.40;;;20.20;56.60;;;;;;4964923;28;21146;-71
2023/05/27 11:16:17;;;;;;;6.23;3.33;;;20.20;56.70;;;;;;4964738;28;21071;-71
2023/05/27 11:18:47;;;;;;;5.60;3.60;;;20.20;56.60;;;;;;4945114;28;20876;-71
2023/05/27 11:21:18;;;;;;;6.40;4.07;;;20.20;56.70;;;;;;4964087;28;20479;-71
2023/05/27 11:23:48;;;;;;;4.13;2.93;;;20.20;56.20;;;;;;4962242;28;20504;-71
2023/05/27 11:26:19;;;;;;;4.87;3.50;;;20.20;56.40;;;;;;4962099;28;20475;-71
2023/05/27 11:28:50;;;;;;;6.10;3.70;;;20.20;56.60;;;;;;4937357;29;20448;-68
2023/05/27 11:31:20;;;;;;;6.20;3.37;;;20.20;56.60;;;;;;4959830;28;20559;-70
2023/05/27 11:33:51;;;;;;;5.70;3.77;;;20.20;56.60;;;;;;4949464;29;20878;-69
2023/05/27 11:36:21;;;;;;;8.00;4.60;;;20.20;56.50;;;;;;4945169;28;20567;-68
2023/05/27 11:38:51;;;;;;;6.23;3.20;;;20.20;56.40;;;;;;4940181;28;20463;-69
2023/05/27 11:41:20;;;;;;;6.10;3.33;;;20.20;56.10;;;;;;4939361;28;20796;-69
2023/05/27 11:43:52;;;;;;;5.30;3.53;;;20.20;56.20;;;;;;4948686;29;20444;-68
2023/05/27 11:46:21;;;;;;;5.73;3.23;;;20.20;56.30;;;;;;4960090;28;20477;-69
2023/05/27 11:48:50;;;;;;;7.13;3.67;;;20.30;56.40;;;;;;4959980;28;20464;-68
2023/05/27 11:51:29;;;;;;;4.13;3.07;;;20.30;56.00;;;;;;4948333;28;20530;-69
2023/05/27 11:54:00;;;;;;;5.73;3.50;;;20.30;56.50;;;;;;4962833;28;20444;-70
2023/05/27 11:56:29;;;;;;;6.70;3.17;;;20.30;56.70;;;;;;4961977;28;20475;-69
2023/05/27 11:59:00;;;;;;;5.00;3.30;;;20.30;56.50;;;;;;4964231;28;20537;-69
2023/05/27 12:01:28;;;;;;;5.30;4.07;;;20.30;56.40;;;;;;4962619;28;20539;-69
2023/05/27 12:03:56;;;;;;;4.90;2.97;;;20.30;56.40;;;;;;4947932;28;20483;-68
2023/05/27 12:06:25;;;;;;;4.17;3.13;;;20.30;56.40;;;;;;4944392;28;20495;-69
2023/05/27 12:08:54;;;;;;;5.63;2.93;;;20.30;56.50;;;;;;4948570;28;20462;-68
2023/05/27 12:11:22;;;;;;;7.03;3.60;;;20.40;56.30;;;;;;4941770;28;20479;-69
2023/05/27 12:13:52;;;;;;;6.07;4.00;;;20.40;55.30;;;;;;4942673;28;20480;-69
2023/05/27 12:16:22;;;;;;;4.50;3.00;;;20.40;54.80;;;;;;4940110;28;20472;-70
2023/05/27 12:18:50;;;;;;;5.83;3.67;;;20.40;55.70;;;;;;4955715;28;20452;-68
2023/05/27 12:21:20;;;;;;;4.97;3.20;;;20.40;55.60;;;;;;4959294;28;20464;-68
2023/05/27 12:23:49;;;;;;;5.83;3.57;;;20.40;55.60;;;;;;4950751;28;20440;-68
2023/05/27 12:26:20;;;;;;;4.93;3.03;;;20.40;55.70;;;;;;4962602;28;20472;-69
2023/05/27 12:28:48;;;;;;;6.70;3.40;;;20.40;55.90;;;;;;4948457;28;20865;-67
2023/05/27 12:31:17;;;;;;;4.13;3.27;;;20.40;56.10;;;;;;4948959;28;20836;-69
2023/05/27 12:33:47;;;;;;;5.10;3.80;;;20.40;55.90;;;;;;4946635;28;20875;-68
2023/05/27 12:36:16;;;;;;;5.83;3.47;;;20.40;55.90;;;;;;4947537;28;20495;-69
2023/05/27 12:38:44;;;;;;;5.63;3.93;;;20.40;56.20;;;;;;4945167;29;20543;-68
2023/05/27 12:41:13;;;;;;;4.93;3.00;;;20.40;56.20;;;;;;4948188;28;20464;-70
2023/05/27 12:43:42;;;;;;;6.20;3.73;;;20.40;56.10;;;;;;4945544;29;20444;-70
2023/05/27 12:46:11;;;;;;;7.40;3.43;;;20.40;55.40;;;;;;4944908;28;20491;-67
2023/05/27 12:48:39;;;;;;;5.97;3.37;;;20.50;54.10;;;;;;4949090;29;20459;-68
2023/05/27 12:51:09;;;;;;;4.00;2.77;;;20.50;54.70;;;;;;4963190;28;21084;-68
2023/05/27 12:53:38;;;;;;;6.47;3.07;;;20.50;55.10;;;;;;4962230;28;20523;-68
2023/05/27 12:56:07;;;;;;;5.50;3.60;;;20.50;55.30;;;;;;4946577;28;20578;-70
2023/05/27 12:58:35;;;;;;;6.20;4.07;;;20.50;55.50;;;;;;4963514;28;20537;-68
2023/05/27 13:01:04;;;;;;;6.40;3.70;;;20.50;55.50;;;;;;4947851;28;21006;-68
2023/05/27 13:03:32;;;;;;;4.07;3.10;;;20.50;55.00;;;;;;4963246;28;20488;-70
2023/05/27 13:06:01;;;;;;;4.43;3.10;;;20.50;55.20;;;;;;4963707;28;20546;-69